createdAt,value
2022-09-27T00:04:26.114Z,177.0609
2022-09-27T00:09:27.697Z,186.4829
2022-09-27T00:14:29.309Z,172.9956
2022-09-27T00:19:30.991Z,155.1781
2022-09-27T00:24:32.740Z,136.69695
2022-09-27T00:29:34.342Z,122.384
2022-09-27T00:34:35.984Z,114.71125
2022-09-27T00:39:37.621Z,106.449
2022-09-27T00:44:39.226Z,98.7401
2022-09-27T00:49:40.840Z,91.82415
2022-09-27T00:54:42.485Z,82.76895
2022-09-27T00:59:44.142Z,71.15045
2022-09-27T01:04:45.803Z,60.6938
2022-09-27T01:09:47.408Z,51.0301
2022-09-27T01:14:48.987Z,43.13675
2022-09-27T01:19:50.600Z,35.42785
2022-09-27T01:24:52.290Z,27.71895
2022-09-27T01:29:53.900Z,18.05525
2022-09-27T01:34:55.480Z,10.5308
2022-09-27T01:39:57.110Z,8.4467
2022-09-27T01:44:58.727Z,7.7089
2022-09-27T01:50:00.417Z,2.01475
2022-09-27T01:55:02.048Z,1.53075
2022-09-27T02:00:03.675Z,0.4148
2022-09-27T02:05:05.276Z,0
2022-09-27T02:10:06.919Z,0
2022-09-27T02:15:08.572Z,0
2022-09-27T02:20:10.174Z,0
2022-09-27T02:25:11.799Z,0
2022-09-27T02:30:13.421Z,0
2022-09-27T02:35:15.024Z,0
2022-09-27T02:40:16.721Z,0
2022-09-27T02:45:18.409Z,0
2022-09-27T02:50:19.991Z,0
2022-09-27T02:55:21.614Z,0
2022-09-27T03:00:23.229Z,0
2022-09-27T03:05:24.864Z,0
2022-09-27T03:10:26.497Z,0
2022-09-27T03:15:28.171Z,0
2022-09-27T03:20:29.812Z,0
2022-09-27T03:25:31.432Z,0
2022-09-27T03:30:33.100Z,0
2022-09-27T03:35:34.755Z,0
2022-09-27T03:40:36.646Z,0
2022-09-27T03:45:38.316Z,0
2022-09-27T03:50:39.923Z,0
2022-09-27T03:55:41.570Z,0
2022-09-27T04:00:43.144Z,0
2022-09-27T04:05:44.745Z,0
2022-09-27T04:10:46.363Z,0
2022-09-27T04:15:52.012Z,0
2022-09-27T04:20:54.406Z,0
2022-09-27T04:25:56.012Z,0
2022-09-27T04:30:57.711Z,0
2022-09-27T04:35:59.427Z,0
2022-09-27T04:41:01.138Z,0
2022-09-27T04:46:02.909Z,0
2022-09-27T04:51:05.263Z,0
2022-09-27T04:56:07.003Z,0
2022-09-27T05:01:08.690Z,0
2022-09-27T05:06:10.322Z,0
2022-09-27T05:11:11.901Z,0
2022-09-27T05:16:13.541Z,0
2022-09-27T05:21:15.265Z,0
2022-09-27T05:26:16.922Z,0
2022-09-27T05:31:18.606Z,0
2022-09-27T05:36:20.435Z,0
2022-09-27T05:41:22.777Z,0
2022-09-27T05:46:24.646Z,0
2022-09-27T05:51:26.240Z,0
2022-09-27T05:56:27.980Z,0
2022-09-27T06:01:29.655Z,0
2022-09-27T06:06:31.278Z,0
2022-09-27T06:11:32.884Z,0
2022-09-27T06:16:34.472Z,0
2022-09-27T06:21:36.052Z,0
2022-09-27T06:26:37.595Z,0
2022-09-27T06:31:39.168Z,0
2022-09-27T06:36:40.719Z,0
2022-09-27T06:41:42.264Z,0
2022-09-27T06:46:43.834Z,0
2022-09-27T06:51:45.476Z,0
2022-09-27T06:56:47.151Z,0
2022-09-27T07:01:48.762Z,0
2022-09-27T07:06:50.344Z,0
2022-09-27T07:11:51.937Z,0
2022-09-27T07:16:53.603Z,0
2022-09-27T07:21:55.225Z,0
2022-09-27T07:26:56.837Z,0
2022-09-27T07:31:58.410Z,0
2022-09-27T07:36:59.957Z,0
2022-09-27T07:42:01.553Z,0
2022-09-27T07:47:03.141Z,0
2022-09-27T07:52:04.766Z,0
2022-09-27T07:57:06.369Z,0
2022-09-27T08:02:08.005Z,0
2022-09-27T08:07:13.706Z,0
2022-09-27T08:12:16.023Z,0
2022-09-27T08:17:17.601Z,0
2022-09-27T08:22:19.245Z,0
2022-09-27T08:27:20.908Z,0
2022-09-27T08:32:23.605Z,0
2022-09-27T08:37:25.351Z,0
2022-09-27T08:42:26.966Z,0
2022-09-27T08:47:28.545Z,0
2022-09-27T08:52:30.124Z,0
2022-09-27T08:57:31.737Z,0
2022-09-27T09:02:33.427Z,0
2022-09-27T09:07:35.047Z,0
2022-09-27T09:12:36.786Z,0
2022-09-27T09:17:38.406Z,0
2022-09-27T09:22:40.018Z,0
2022-09-27T09:27:41.689Z,0
2022-09-27T09:32:43.304Z,0
2022-09-27T09:37:44.958Z,0
2022-09-27T09:42:46.556Z,0
2022-09-27T09:47:48.176Z,0
2022-09-27T09:52:49.779Z,0
2022-09-27T09:57:51.365Z,0
2022-09-27T10:02:52.930Z,0
2022-09-27T10:07:54.559Z,0
2022-09-27T10:12:56.151Z,0
2022-09-27T10:17:57.760Z,0
2022-09-27T10:22:59.376Z,0
2022-09-27T10:28:00.991Z,0
2022-09-27T10:33:02.582Z,0
2022-09-27T10:38:04.167Z,0
2022-09-27T10:43:05.805Z,0
2022-09-27T10:48:07.489Z,0
2022-09-27T10:53:09.101Z,0
2022-09-27T10:58:10.727Z,0
2022-09-27T11:03:12.580Z,0
2022-09-27T11:08:14.233Z,0
2022-09-27T11:13:15.850Z,0
2022-09-27T11:18:17.476Z,0
2022-09-27T11:23:19.051Z,0
2022-09-27T11:28:20.635Z,0
2022-09-27T11:33:22.207Z,0
2022-09-27T11:38:48.076Z,0
2022-09-27T11:43:53.659Z,0
2022-09-27T11:48:55.381Z,0
2022-09-27T11:53:56.972Z,0
2022-09-27T11:58:58.713Z,0
2022-09-27T12:04:00.346Z,0
2022-09-27T12:09:02.043Z,0
2022-09-27T12:14:03.627Z,0
2022-09-27T12:19:05.235Z,0
2022-09-27T12:24:06.812Z,0
2022-09-27T12:29:08.400Z,0
2022-09-27T12:34:10.021Z,0
2022-09-27T12:39:11.683Z,0
2022-09-27T12:44:13.492Z,0
2022-09-27T12:49:15.366Z,0
2022-09-27T12:54:17.266Z,0
2022-09-27T12:59:18.869Z,0
2022-09-27T13:04:20.470Z,0
2022-09-27T13:09:22.127Z,0
2022-09-27T13:14:23.747Z,0
2022-09-27T13:19:27.210Z,0
2022-09-27T13:24:28.940Z,0.4148
2022-09-27T13:29:30.590Z,0.88885
2022-09-27T13:34:32.184Z,1.83695
2022-09-27T13:39:33.787Z,4.59225
2022-09-27T13:44:35.421Z,5.33005
2022-09-27T13:49:37.022Z,12.4856
2022-09-27T13:54:38.582Z,17.68635
2022-09-27T13:59:40.217Z,21.9097
2022-09-27T14:04:41.800Z,32.5508
2022-09-27T14:09:43.400Z,40.2597
2022-09-27T14:14:45.058Z,49.3149
2022-09-27T14:19:46.663Z,51.95235
2022-09-27T14:24:48.247Z,64.7327
2022-09-27T14:29:49.834Z,70.1179
2022-09-27T14:34:51.423Z,72.75535
2022-09-27T14:39:53.050Z,67.51845
2022-09-27T14:44:54.634Z,576.98875
2022-09-27T14:49:56.251Z,172.02395
2022-09-27T14:54:57.854Z,170.1275
2022-09-27T14:59:59.444Z,214.86645
2022-09-27T15:05:01.103Z,216.9404
2022-09-27T15:10:02.750Z,210.00725
2022-09-27T15:15:04.357Z,199.341
2022-09-27T15:20:05.989Z,181.9195
2022-09-27T15:25:07.695Z,189.32675
2022-09-27T15:30:09.987Z,223.75495
2022-09-27T15:35:11.562Z,219.84405
2022-09-27T15:40:13.147Z,259.84285
2022-09-27T15:45:14.757Z,313.9449
2022-09-27T15:50:16.326Z,304.2269
2022-09-27T15:55:17.930Z,344.87725
2022-09-27T16:00:19.620Z,348.07685
2022-09-27T16:05:21.217Z,378.23895
2022-09-27T16:10:22.989Z,389.9125
2022-09-27T16:15:24.572Z,379.66085
2022-09-27T16:20:26.200Z,373.49805
2022-09-27T16:25:27.838Z,353.64695
2022-09-27T16:30:29.424Z,441.52505
2022-09-27T16:35:31.023Z,457.34675
2022-09-27T16:40:32.698Z,456.6356
2022-09-27T16:45:34.292Z,450.9469
2022-09-27T16:50:35.935Z,447.92465
2022-09-27T16:55:37.508Z,456.93175
2022-09-27T17:00:39.099Z,464.10185
2022-09-27T17:05:40.763Z,470.44245
2022-09-27T17:10:42.377Z,470.9758
2022-09-27T17:15:44.011Z,468.13135
2022-09-27T17:20:45.673Z,472.69405
2022-09-27T17:25:47.332Z,486.7382
2022-09-27T17:30:49.060Z,496.98995
2022-09-27T17:35:50.663Z,574.49835
2022-09-27T17:40:52.288Z,549.848
2022-09-27T17:45:53.950Z,648.3336
2022-09-27T17:50:55.617Z,709.6651
2022-09-27T17:55:57.234Z,671.5037
2022-09-27T18:01:00.990Z,733.4867
2022-09-27T18:06:02.845Z,723.41305
2022-09-27T18:11:04.491Z,702.49515
2022-09-27T18:16:06.173Z,662.4963
2022-09-27T18:21:07.845Z,614.9716
2022-09-27T18:26:09.424Z,580.54285
2022-09-27T18:31:11.170Z,566.8542
2022-09-27T18:36:12.787Z,561.34335
2022-09-27T18:41:14.441Z,541.492
2022-09-27T18:46:34.490Z,541.78835
2022-09-27T18:51:37.841Z,548.84
2022-09-27T18:56:39.767Z,553.52135
2022-09-27T19:01:41.444Z,557.136
2022-09-27T19:06:43.092Z,555.1805
2022-09-27T19:11:44.676Z,551.74355
2022-09-27T19:16:46.339Z,553.3435
2022-09-27T19:21:47.970Z,545.22525
2022-09-27T19:26:49.610Z,536.15875
2022-09-27T19:31:51.391Z,532.42545
2022-09-27T19:36:53.070Z,541.3733
2022-09-27T19:41:54.699Z,565.13565
2022-09-27T19:46:56.451Z,595.8904
2022-09-27T19:51:58.111Z,613.66775
2022-09-27T19:56:59.699Z,619.17885
2022-09-27T20:02:01.402Z,623.7417
2022-09-27T20:07:03.052Z,626.05285
2022-09-27T20:12:04.708Z,625.63805
2022-09-27T20:17:06.397Z,641.45965
2022-09-27T20:22:08.027Z,658.6443
2022-09-27T20:27:09.613Z,647.62245
2022-09-27T20:32:27.290Z,440.99315
2022-09-27T20:37:29.434Z,617.4013
2022-09-27T20:42:31.129Z,624.92705
2022-09-27T20:47:32.780Z,613.96455
2022-09-27T20:52:34.443Z,643.88955
2022-09-27T20:57:56.321Z,643.6525
2022-09-27T21:02:59.361Z,645.0745
2022-09-27T21:08:00.990Z,648.92615
2022-09-27T21:13:02.603Z,637.3114
2022-09-27T21:18:04.189Z,628.60065
2022-09-27T21:23:05.833Z,634.88195
2022-09-27T21:28:07.384Z,635.59315
2022-09-27T21:33:08.975Z,619.17905
2022-09-27T21:38:10.594Z,618.40895
2022-09-27T21:43:12.265Z,629.37165
2022-09-27T21:48:13.932Z,642.053
2022-09-27T21:53:15.549Z,657.10435
2022-09-27T21:58:17.159Z,675.29625
2022-09-27T22:03:18.782Z,694.9104
2022-09-27T22:08:20.370Z,737.1606
2022-09-27T22:13:21.971Z,779.82595
2022-09-27T22:18:23.558Z,705.6951
2022-09-27T22:23:25.187Z,813.36535
2022-09-27T22:28:26.811Z,831.14245
2022-09-27T22:33:28.476Z,817.8095
2022-09-27T22:38:30.122Z,796.71385
2022-09-27T22:43:31.727Z,300.8941
2022-09-27T22:48:33.364Z,614.32015
2022-09-27T22:53:34.983Z,808.97965
2022-09-27T22:58:36.893Z,770.2847
2022-09-27T23:03:38.609Z,730.52305
2022-09-27T23:08:40.217Z,712.50885
2022-09-27T23:13:41.835Z,690.7614
2022-09-27T23:18:43.487Z,672.2729
2022-09-27T23:23:45.150Z,645.607
2022-09-27T23:28:46.812Z,622.73355
2022-09-27T23:33:48.413Z,597.84545
2022-09-27T23:38:50.026Z,570.88335
2022-09-27T23:43:51.655Z,529.8773
2022-09-27T23:48:53.253Z,474.8273
2022-09-27T23:53:54.878Z,425.64395
2022-09-27T23:58:56.453Z,135.10675
